Darstellungsparameter: Aktuell verwendete Einstellungen:
Skalierung der Graphiken ... ?
xyx+y,   Skalierungsfaktor:      Skalierung: Modus: x, Faktor: 1
Darstellungszeitraum ... ?
Vom - - bis: - -   Zeitraum: 24.11.2009 - 24.11.2009
Min/Max/Avg-Anzeige ... ?
Zeige MMA aktuell
Zeige MMA Monat
Zeige MMA alles
Zeige --A aktuell
Zeige --A Monat
Zeige --A alles
Keine MMA-Anzeige
MMA:
Average (ber die Originaldaten)
MMA-Basis: 24.11.2009 - 24.11.2009
Quicknavigation für Darstellung... ?
Tage:      1T, 2T, 3T, 5T -1T -2T -3T -5T +1T +2T +3T +5T
Wochen: 1W, 2W, 3W -1W -2W -3W +1W +2W +3W
Monate: 1M, 3M, 6M -1M -3M -6M +1M +3M +6M
Jahre:    1J, 3J, 5J, 10J -1J -3J -5J -10J +1J +3J +5J +10J
Nutze für die Darstellung ... ?
Originaldaten oder Mittelwerte auf ...
Stundenbasis Tagesbasis Wochenbasis
Monatsbasis Jahresbasis      Datenbasis: Original-Daten
Darstellen als:
Statistik (Auto) Statistik J:M      Darstellung:
Zur Graphik,    zurück zur Übersicht aller Sensoren.
 
Tabellarische Datenbersicht: ?
 
Sensor: Nr:Datum:Temp:Abs-Feuchte:Windchill:Wind:
Aussen-T/F 1 24-11-2009 00:06:04 11.1 C 6.45 g/m*3 11.1 C 0 km/h
2 24-11-2009 00:18:04 10.8 C 6.52 g/m*3 10.8 C 0 km/h
3 24-11-2009 00:30:04 11 C 6.31 g/m*3 11 C 0 km/h
4 24-11-2009 00:42:04 11.3 C 6.12 g/m*3 11.3 C 0 km/h
5 24-11-2009 00:54:04 11.5 C 6.2 g/m*3 11.5 C 0 km/h
6 24-11-2009 01:06:04 11.2 C 6.28 g/m*3 11.2 C 0 km/h
7 24-11-2009 01:18:04 11.1 C 6.25 g/m*3 11.1 C 0 km/h
8 24-11-2009 01:30:05 11 C 6.41 g/m*3 11 C 0 km/h
9 24-11-2009 01:42:05 11.1 C 6.55 g/m*3 11.1 C 0 km/h
10 24-11-2009 01:54:05 11.1 C 6.45 g/m*3 11.1 C 0 km/h
11 24-11-2009 02:06:05 11.2 C 6.28 g/m*3 11.2 C 0 km/h
12 24-11-2009 02:18:05 11.2 C 6.28 g/m*3 11.2 C 0 km/h
13 24-11-2009 02:30:05 11 C 6.21 g/m*3 11 C 0 km/h
14 24-11-2009 02:42:05 11 C 6.11 g/m*3 11 C 0 km/h
15 24-11-2009 02:54:05 11 C 6.11 g/m*3 11 C 0 km/h
16 24-11-2009 03:06:05 10.9 C 6.17 g/m*3 10.9 C 0 km/h
17 24-11-2009 03:18:05 10.8 C 6.23 g/m*3 10.8 C 0 km/h
18 24-11-2009 03:30:05 10.7 C 6.29 g/m*3 10.7 C 0 km/h
19 24-11-2009 03:42:05 10.7 C 6.19 g/m*3 10.7 C 0 km/h
20 24-11-2009 03:54:05 10.7 C 6.19 g/m*3 10.7 C 0 km/h
21 24-11-2009 04:06:05 10.7 C 6.29 g/m*3 10.7 C 0 km/h
22 24-11-2009 04:18:05 10.6 C 6.25 g/m*3 10.6 C 0 km/h
23 24-11-2009 04:30:05 10.5 C 6.3 g/m*3 10.5 C 0 km/h
24 24-11-2009 04:42:05 10.5 C 6.3 g/m*3 10.5 C 0 km/h
25 24-11-2009 04:54:05 10.4 C 6.36 g/m*3 10.4 C 0 km/h
Sensor: Nr:Datum:Temp:Abs-Feuchte:Windchill:Wind:
Aussen-T/F 26 24-11-2009 05:06:05 10.5 C 6.4 g/m*3 10.5 C 0 km/h
27 24-11-2009 05:18:05 10.5 C 6.4 g/m*3 10.5 C 0 km/h
28 24-11-2009 05:30:06 10.6 C 6.34 g/m*3 10.6 C 0 km/h
29 24-11-2009 05:42:06 10.6 C 6.44 g/m*3 10.6 C 0 km/h
30 24-11-2009 05:54:06 10.4 C 6.46 g/m*3 10.4 C 0 km/h
31 24-11-2009 06:06:06 10.5 C 6.5 g/m*3 10.5 C 0 km/h
32 24-11-2009 06:18:06 10.4 C 6.55 g/m*3 10.4 C 0 km/h
33 24-11-2009 06:30:06 10.4 C 6.55 g/m*3 10.4 C 0 km/h
34 24-11-2009 06:42:06 10.4 C 6.55 g/m*3 10.4 C 0 km/h
35 24-11-2009 06:54:02 10.3 C 6.51 g/m*3 10.3 C 0 km/h
36 24-11-2009 07:06:02 10.5 C 6.5 g/m*3 10.5 C 0 km/h
37 24-11-2009 07:18:02 10.5 C 6.4 g/m*3 10.5 C 0 km/h
38 24-11-2009 07:30:02 10.3 C 6.32 g/m*3 10.3 C 0 km/h
39 24-11-2009 07:42:02 9.9 C 6.35 g/m*3 9.9 C 0 km/h
40 24-11-2009 07:54:02 9.8 C 6.31 g/m*3 9.8 C 0 km/h
41 24-11-2009 08:06:01 9.7 C 6.36 g/m*3 9.7 C 0 km/h
42 24-11-2009 08:18:02 9.5 C 6.28 g/m*3 9.5 C 0 km/h
43 24-11-2009 08:30:02 9.5 C 6.37 g/m*3 9.5 C 0 km/h
44 24-11-2009 08:42:02 9.4 C 6.33 g/m*3 9.4 C 0 km/h
45 24-11-2009 08:54:02 9.4 C 6.42 g/m*3 9.4 C 0 km/h
46 24-11-2009 09:06:03 9.8 C 6.49 g/m*3 9.8 C 0 km/h
47 24-11-2009 09:18:02 10 C 6.39 g/m*3 10 C 0 km/h
48 24-11-2009 09:30:02 10 C 6.48 g/m*3 10 C 0 km/h
49 24-11-2009 09:42:02 10.1 C 6.62 g/m*3 10.1 C 0 km/h
50 24-11-2009 09:54:01 10.2 C 6.66 g/m*3 10.2 C 0 km/h
Sensor: Nr:Datum:Temp:Abs-Feuchte:Windchill:Wind:
Aussen-T/F 51 24-11-2009 10:06:01 10.4 C 6.84 g/m*3 10.4 C 0 km/h
52 24-11-2009 10:18:01 10.5 C 6.98 g/m*3 10.5 C 0 km/h
53 24-11-2009 10:30:01 10.3 C 6.99 g/m*3 10.3 C 0 km/h
54 24-11-2009 10:42:02 10.3 C 7.37 g/m*3 10.3 C 0 km/h
55 24-11-2009 10:54:02 10.6 C 7.61 g/m*3 10.6 C 0 km/h
56 24-11-2009 11:06:02 11 C 7.71 g/m*3 11 C 0 km/h
57 24-11-2009 11:18:02 11.1 C 7.76 g/m*3 11.1 C 0 km/h
58 24-11-2009 11:30:02 11.4 C 7.9 g/m*3 11.4 C 0 km/h
59 24-11-2009 11:42:02 11.5 C 8.06 g/m*3 11.5 C 0 km/h
60 24-11-2009 11:54:01 11.4 C 8.21 g/m*3 11.4 C 0 km/h
61 24-11-2009 12:06:02 11.5 C 8.37 g/m*3 11.5 C 0 km/h
62 24-11-2009 12:18:01 11.7 C 8.58 g/m*3 11.7 C 0 km/h
63 24-11-2009 12:30:01 11.9 C 8.79 g/m*3 11.9 C 0 km/h
64 24-11-2009 12:42:02 12.2 C 8.96 g/m*3 12.2 C 0 km/h
65 24-11-2009 12:54:02 12.3 C 9.01 g/m*3 12.3 C 0 km/h
66 24-11-2009 13:06:02 12.5 C 9.24 g/m*3 12.5 C 0 km/h
67 24-11-2009 13:18:01 12.8 C 9.3 g/m*3 12.8 C 0 km/h
68 24-11-2009 13:30:01 13.3 C 9.24 g/m*3 13.3 C 0 km/h
69 24-11-2009 13:42:02 13.3 C 9.24 g/m*3 13.3 C 0 km/h
70 24-11-2009 13:54:02 13.7 C 9.35 g/m*3 13.7 C 0 km/h
71 24-11-2009 14:06:02 13.9 C 9.23 g/m*3 13.9 C 0 km/h
72 24-11-2009 14:18:01 14.1 C 8.86 g/m*3 14.1 C 0 km/h
73 24-11-2009 14:30:01 14.2 C 8.43 g/m*3 14.2 C 0 km/h
74 24-11-2009 14:42:02 14.4 C 8.03 g/m*3 14.4 C 0 km/h
75 24-11-2009 14:54:02 14.4 C 7.91 g/m*3 14.4 C 0 km/h
Sensor: Nr:Datum:Temp:Abs-Feuchte:Windchill:Wind:
Aussen-T/F 76 24-11-2009 15:06:02 14.2 C 8.06 g/m*3 14.2 C 0 km/h
77 24-11-2009 15:18:02 13.9 C 8.39 g/m*3 13.9 C 0 km/h
78 24-11-2009 15:30:02 13.7 C 8.41 g/m*3 13.7 C 0 km/h
79 24-11-2009 15:42:02 13.6 C 8.47 g/m*3 13.6 C 0 km/h
80 24-11-2009 15:54:02 13.5 C 8.54 g/m*3 13.5 C 0 km/h
81 24-11-2009 16:06:02 13.5 C 8.42 g/m*3 13.5 C 0 km/h
82 24-11-2009 16:18:02 13.4 C 8.25 g/m*3 13.4 C 0 km/h
83 24-11-2009 16:30:02 13.3 C 8.2 g/m*3 13.3 C 0 km/h
84 24-11-2009 16:42:02 13.3 C 8.2 g/m*3 13.3 C 0 km/h
85 24-11-2009 16:54:01 13.2 C 8.15 g/m*3 13.2 C 0 km/h
86 24-11-2009 17:06:02 13.4 C 8.25 g/m*3 13.4 C 0 km/h
87 24-11-2009 17:18:02 13.2 C 8.15 g/m*3 13.2 C 0 km/h
88 24-11-2009 17:30:02 13.3 C 8.2 g/m*3 13.3 C 0 km/h
89 24-11-2009 17:42:02 13.2 C 8.15 g/m*3 13.2 C 0 km/h
90 24-11-2009 17:54:02 13.2 C 8.27 g/m*3 13.2 C 0 km/h
91 24-11-2009 18:06:02 13.1 C 8.22 g/m*3 13.1 C 0 km/h
92 24-11-2009 18:18:02 13.1 C 8.33 g/m*3 13.1 C 0 km/h
93 24-11-2009 18:30:03 13.1 C 8.33 g/m*3 13.1 C 0 km/h
94 24-11-2009 18:42:01 13 C 8.28 g/m*3 13 C 0 km/h
95 24-11-2009 18:54:02 13 C 8.28 g/m*3 13 C 0 km/h
96 24-11-2009 19:06:01 13.1 C 8.22 g/m*3 13.1 C 0 km/h
97 24-11-2009 19:18:02 13.1 C 8.1 g/m*3 13.1 C 0 km/h
98 24-11-2009 19:30:02 13 C 8.05 g/m*3 13 C 0 km/h
99 24-11-2009 19:42:02 13 C 8.05 g/m*3 13 C 0 km/h
100 24-11-2009 19:54:02 13 C 7.94 g/m*3 13 C 0 km/h
Sensor: Nr:Datum:Temp:Abs-Feuchte:Windchill:Wind:
Aussen-T/F 101 24-11-2009 20:06:02 13 C 7.94 g/m*3 13 C 0 km/h
102 24-11-2009 20:18:02 13.1 C 7.87 g/m*3 13.1 C 0 km/h
103 24-11-2009 20:30:02 13.1 C 7.87 g/m*3 13.1 C 0 km/h
104 24-11-2009 20:42:02 13.1 C 7.76 g/m*3 13.1 C 0 km/h
105 24-11-2009 20:54:02 13.2 C 7.81 g/m*3 13.2 C 0 km/h
106 24-11-2009 21:06:01 13.3 C 7.74 g/m*3 13.3 C 0 km/h
107 24-11-2009 21:18:02 13.4 C 7.67 g/m*3 13.4 C 0 km/h
108 24-11-2009 21:30:02 13.3 C 7.63 g/m*3 13.3 C 0 km/h
109 24-11-2009 21:42:01 13.3 C 7.63 g/m*3 13.3 C 0 km/h
110 24-11-2009 21:54:02 13.1 C 7.53 g/m*3 13.1 C 0 km/h
111 24-11-2009 22:06:01 13.3 C 7.51 g/m*3 13.3 C 0 km/h
112 24-11-2009 22:18:02 13.3 C 7.39 g/m*3 13.3 C 0 km/h
113 24-11-2009 22:30:02 13.4 C 7.32 g/m*3 13.4 C 0 km/h
114 24-11-2009 22:42:01 13.3 C 7.28 g/m*3 13.3 C 0 km/h
115 24-11-2009 22:55:03 13.3 C 7.28 g/m*3 13.3 C 0 km/h
116 24-11-2009 23:07:03 13.2 C 7.12 g/m*3 13.2 C 0 km/h
117 24-11-2009 23:19:03 13.2 C 7 g/m*3 13.2 C 0 km/h
118 24-11-2009 23:31:03 13.2 C 6.89 g/m*3 13.2 C 0 km/h
119 24-11-2009 23:43:03 13.2 C 6.77 g/m*3 13.2 C 0 km/h
120 24-11-2009 23:55:03 13.1 C 6.62 g/m*3 13.1 C 0 km/h

Legende:
   Min
   Max


Maximal/Minimal-Werte vom 24.11.2009 - 24.11.2009

Sensor Min Max Avg
Temp
(Aussen-T/F)
9.4 °C
24-11-2009  08:42:02
14.4 °C
24-11-2009  14:42:02
11.9 °C
Abs-Feuchte
(Aussen-T/F)
6.11 g/m*3
24-11-2009  02:42:05
9.35 g/m*3
24-11-2009  13:54:02
7.28 g/m*3
Windchill
(Aussen-T/F)
9.4 C
24-11-2009  08:42:02
14.4 C
24-11-2009  14:42:02
11.8 C

Die Daten stammen von einer Davis Vantage Pro 2 Wetter-Station und werden unter Linux mit der Software wview2wettercgi und aufbereitet. Alle Angaben erfolgen ohne Gewähr für ihre Vollständigkeit oder Richtigkeit.
Kontakt: Rainer Krienke krienke@uni-koblenz.de . Meine Webseiten an der Uni Koblenz oder privat.
Version: $Revision: 0.78 $